createdAt,value
2022-12-03T16:41:30.323Z,102509.06
2022-12-03T16:44:02.954Z,102522.25
2022-12-03T16:46:33.248Z,102520.69
2022-12-03T16:49:04.177Z,102514.53
2022-12-03T16:51:34.302Z,102516.34
2022-12-03T16:54:04.553Z,102508.66
2022-12-03T16:56:34.666Z,102518.72
2022-12-03T16:59:04.912Z,102521.00
2022-12-03T17:01:35.171Z,102518.00
2022-12-03T17:04:05.395Z,102520.19
2022-12-03T17:06:35.488Z,102517.69
2022-12-03T17:09:05.811Z,102514.31
2022-12-03T17:11:36.054Z,102515.06
2022-12-03T17:14:06.236Z,102525.59
2022-12-03T17:16:36.385Z,102526.00
2022-12-03T17:19:07.274Z,102523.06
2022-12-03T17:21:37.527Z,102520.22
2022-12-03T17:24:07.968Z,102525.16
2022-12-03T17:26:39.511Z,102534.63
2022-12-03T17:29:09.689Z,102523.31
2022-12-03T17:31:42.252Z,102525.59
2022-12-03T17:34:14.125Z,102523.72
2022-12-03T17:36:44.277Z,102530.72
2022-12-03T17:39:14.558Z,102519.38
2022-12-03T17:41:44.758Z,102521.75
2022-12-03T17:44:19.429Z,102527.88
2022-12-03T17:46:51.219Z,102525.19
2022-12-03T17:49:21.516Z,102526.88
2022-12-03T17:51:51.660Z,102519.97
2022-12-03T17:54:21.948Z,102537.91
2022-12-03T17:56:52.051Z,102527.59
2022-12-03T17:59:22.299Z,102525.91
2022-12-03T18:01:52.606Z,102522.34
2022-12-03T18:04:22.928Z,102526.88
2022-12-03T18:06:57.415Z,102528.53
2022-12-03T18:09:30.769Z,102522.34
2022-12-03T18:12:01.996Z,102530.22
2022-12-03T18:14:32.080Z,102522.25
2022-12-03T18:17:02.272Z,102533.31
2022-12-03T18:19:32.583Z,102525.78
2022-12-03T18:22:04.271Z,102524.09
2022-12-03T18:24:34.934Z,102515.53
2022-12-03T18:27:05.129Z,102510.50
2022-12-03T18:29:35.398Z,102511.41
2022-12-03T18:32:27.225Z,102511.50
2022-12-03T18:34:58.864Z,102518.28
2022-12-03T18:37:29.997Z,102524.38
2022-12-03T18:40:01.295Z,102523.63
2022-12-03T18:42:31.526Z,102527.16
2022-12-03T18:45:01.882Z,102523.72
2022-12-03T18:47:32.044Z,102525.47
2022-12-03T18:50:02.286Z,102522.09
2022-12-03T18:52:32.631Z,102523.09
2022-12-03T18:55:03.378Z,102527.34
2022-12-03T18:57:35.355Z,102520.47
2022-12-03T19:00:13.255Z,102517.09
2022-12-03T19:03:05.133Z,102518.88
2022-12-03T19:05:36.498Z,102517.19
2022-12-03T19:08:14.386Z,102519.84
2022-12-03T19:10:45.057Z,102526.75
2022-12-03T19:13:15.199Z,102528.44
2022-12-03T19:15:47.081Z,102535.22
2022-12-03T19:18:18.401Z,102532.66
2022-12-03T19:20:48.985Z,102530.28
2022-12-03T19:23:19.286Z,102540.63
2022-12-03T19:26:00.773Z,102539.84
2022-12-03T19:28:30.971Z,102532.06
2022-12-03T19:31:18.818Z,102538.28
2022-12-03T19:33:49.457Z,102534.84
2022-12-03T19:36:24.830Z,102529.88
2022-12-03T19:38:57.667Z,102539.44
2022-12-03T19:41:30.868Z,102529.34
2022-12-03T19:44:03.139Z,102525.72
2022-12-03T19:46:36.532Z,102535.47
2022-12-03T19:49:06.743Z,102531.03
2022-12-03T19:51:37.501Z,102539.81
2022-12-03T19:54:08.553Z,102542.19
2022-12-03T19:56:38.902Z,102538.94
2022-12-03T19:59:16.785Z,102538.13
2022-12-03T20:01:47.030Z,102535.69
2022-12-03T20:04:17.427Z,102535.75
2022-12-03T20:06:48.408Z,102533.00
2022-12-03T20:09:18.674Z,102539.13
2022-12-03T20:11:51.309Z,102536.84
2022-12-03T20:14:21.633Z,102536.84
2022-12-03T20:16:52.056Z,102533.38
2022-12-03T20:19:22.266Z,102530.91
2022-12-03T20:21:53.734Z,102542.13
2022-12-03T20:24:26.746Z,102537.72
2022-12-03T20:26:56.847Z,102536.13
2022-12-03T20:29:27.000Z,102536.13
2022-12-03T20:31:57.311Z,102535.25
2022-12-03T20:34:27.407Z,102535.25
2022-12-03T20:36:58.623Z,102533.66
2022-12-03T20:39:29.950Z,102534.44
2022-12-03T20:42:00.041Z,102528.06
2022-12-03T20:44:30.200Z,102541.44
2022-12-03T20:47:00.294Z,102546.78
2022-12-03T20:49:30.516Z,102530.19
2022-12-03T20:52:04.311Z,102537.22
2022-12-03T20:54:34.885Z,102533.84
2022-12-03T20:57:05.007Z,102524.47
2022-12-03T20:59:35.162Z,102530.47
2022-12-03T21:02:05.855Z,102520.22
2022-12-03T21:04:36.251Z,102517.63
2022-12-03T21:07:06.365Z,102528.88
2022-12-03T21:09:36.584Z,102521.28
2022-12-03T21:12:06.951Z,102522.97
2022-12-03T21:14:37.044Z,102523.97
2022-12-03T21:17:09.258Z,102528.38
2022-12-03T21:19:39.893Z,102523.34
2022-12-03T21:22:10.340Z,102532.91
2022-12-03T21:24:42.919Z,102518.22
2022-12-03T21:27:17.079Z,102517.59
2022-12-03T21:29:51.549Z,102520.97
2022-12-03T21:32:21.758Z,102523.53
2022-12-03T21:34:51.933Z,102528.66
2022-12-03T21:37:22.176Z,102527.84
2022-12-03T21:39:52.390Z,102527.06
2022-12-03T21:42:36.405Z,102517.59
2022-12-03T21:45:08.288Z,102531.41
2022-12-03T21:47:38.443Z,102532.38
2022-12-03T21:50:11.387Z,102524.41
2022-12-03T21:52:41.875Z,102517.41
2022-12-03T21:55:12.225Z,102527.97
2022-12-03T21:57:42.499Z,102528.06
2022-12-03T22:00:13.509Z,102521.06
2022-12-03T22:02:43.792Z,102514.31
2022-12-03T22:05:13.911Z,102511.06
2022-12-03T22:07:44.237Z,102508.50
2022-12-03T22:10:14.794Z,102509.28
2022-12-03T22:12:44.939Z,102520.44
2022-12-03T22:15:18.767Z,102516.22
2022-12-03T22:17:49.481Z,102520.63
2022-12-03T22:20:19.812Z,102521.41
2022-12-03T22:22:50.392Z,102519.72
2022-12-03T22:25:20.491Z,102518.94
2022-12-03T22:27:50.700Z,102525.13
2022-12-03T22:30:20.834Z,102527.53
2022-12-03T22:32:51.016Z,102534.63
2022-12-03T22:35:21.229Z,102526.91
2022-12-03T22:37:51.385Z,102529.59
2022-12-03T22:40:21.559Z,102533.19
2022-12-03T22:42:53.437Z,102530.72
2022-12-03T22:45:23.672Z,102517.44
2022-12-03T22:47:53.762Z,102530.03
2022-12-03T22:50:23.944Z,102538.53
2022-12-03T22:52:54.110Z,102532.50
2022-12-03T22:55:24.267Z,102536.03
2022-12-03T22:57:54.398Z,102533.41
2022-12-03T23:00:33.656Z,102541.38
2022-12-03T23:03:04.623Z,102542.31
2022-12-03T23:05:38.700Z,102541.38
2022-12-03T23:08:12.553Z,102539.16
2022-12-03T23:10:45.213Z,102533.84
2022-12-03T23:13:16.333Z,102542.69
2022-12-03T23:15:48.599Z,102536.78
2022-12-03T23:18:19.937Z,102541.97
2022-12-03T23:20:55.517Z,102547.31
2022-12-03T23:23:27.932Z,102536.94
2022-12-03T23:26:01.058Z,102528.38
2022-12-03T23:28:33.257Z,102527.47
2022-12-03T23:31:04.607Z,102514.63
2022-12-03T23:33:38.335Z,102518.00
2022-12-03T23:36:09.263Z,102515.53
2022-12-03T23:38:40.241Z,102516.56
2022-12-03T23:41:13.456Z,102512.34
2022-12-03T23:43:44.248Z,102511.63
2022-12-03T23:46:19.393Z,102516.56
2022-12-03T23:48:50.152Z,102510.66
2022-12-03T23:51:24.823Z,102515.84
2022-12-03T23:53:55.616Z,102514.19
2022-12-03T23:56:28.451Z,102510.66
2022-12-03T23:58:58.740Z,102508.09
